createdAt,value
2017-09-01T00:01:43.588Z,78.89
2017-09-01T00:04:09.818Z,79.97
2017-09-01T00:06:36.046Z,80.00
2017-09-01T00:09:02.286Z,80.86
2017-09-01T00:11:28.505Z,81.31
2017-09-01T00:13:54.743Z,81.82
2017-09-01T00:16:20.965Z,81.80
2017-09-01T00:18:47.192Z,81.57
2017-09-01T00:21:13.421Z,81.89
2017-09-01T00:23:39.659Z,82.50
2017-09-01T00:26:05.879Z,82.24
2017-09-01T00:28:32.110Z,82.96
2017-09-01T00:30:58.345Z,82.10
2017-09-01T00:33:24.573Z,82.09
2017-09-01T00:35:50.807Z,81.71
2017-09-01T00:38:17.031Z,82.04
2017-09-01T00:40:43.265Z,81.76
2017-09-01T00:43:09.488Z,81.94
2017-09-01T00:45:35.732Z,82.27
2017-09-01T00:48:01.972Z,81.90
2017-09-01T00:50:28.189Z,82.56
2017-09-01T00:52:54.417Z,82.22
2017-09-01T00:55:20.637Z,82.12
2017-09-01T00:57:46.865Z,82.48
2017-09-01T01:00:13.107Z,81.94
2017-09-01T01:02:39.325Z,82.47
2017-09-01T01:05:05.562Z,82.66
2017-09-01T01:07:31.795Z,83.14
2017-09-01T01:09:58.026Z,83.14
2017-09-01T01:12:24.243Z,82.49
2017-09-01T01:14:50.472Z,82.31
2017-09-01T01:17:16.692Z,82.34
2017-09-01T01:19:42.943Z,82.73
2017-09-01T01:22:09.162Z,82.78
2017-09-01T01:24:35.377Z,83.27
2017-09-01T01:27:01.629Z,83.37
2017-09-01T01:29:27.849Z,83.40
2017-09-01T01:31:54.096Z,83.12
2017-09-01T01:34:20.318Z,83.33
2017-09-01T01:36:46.544Z,83.43
2017-09-01T01:39:12.772Z,83.72
2017-09-01T01:41:39.011Z,83.29
2017-09-01T01:44:05.234Z,83.41
2017-09-01T01:46:31.465Z,83.27
2017-09-01T01:48:57.686Z,83.16
2017-09-01T01:51:23.923Z,83.31
2017-09-01T01:53:50.131Z,83.32
2017-09-01T01:56:16.382Z,83.32
2017-09-01T01:58:42.602Z,83.75
2017-09-01T02:01:08.845Z,83.75
2017-09-01T02:03:35.070Z,83.99
2017-09-01T02:06:01.285Z,84.44
2017-09-01T02:08:27.510Z,84.49
2017-09-01T02:10:53.745Z,84.59
2017-09-01T02:13:19.975Z,85.08
2017-09-01T02:15:46.217Z,85.42
2017-09-01T02:18:12.462Z,85.27
2017-09-01T02:20:38.658Z,85.17
2017-09-01T02:23:04.918Z,85.72
2017-09-01T02:25:31.141Z,84.93
2017-09-01T02:27:57.368Z,85.18
2017-09-01T02:30:23.598Z,84.40
2017-09-01T02:32:49.814Z,84.80
2017-09-01T02:35:16.052Z,84.52
2017-09-01T02:37:42.279Z,84.22
2017-09-01T02:40:08.500Z,84.55
2017-09-01T02:42:34.726Z,84.77
2017-09-01T02:45:00.958Z,84.99
2017-09-01T02:47:27.190Z,84.89
2017-09-01T02:49:53.418Z,85.26
2017-09-01T02:52:19.654Z,85.13
2017-09-01T02:54:45.867Z,85.19
2017-09-01T02:57:12.111Z,85.25
2017-09-01T02:59:38.353Z,85.39
2017-09-01T03:02:04.585Z,85.01
2017-09-01T03:04:30.807Z,85.27
2017-09-01T03:06:57.025Z,85.50
2017-09-01T03:09:23.271Z,85.56
2017-09-01T03:11:49.501Z,85.82
2017-09-01T03:14:15.745Z,85.84
2017-09-01T03:16:41.953Z,85.74
2017-09-01T03:19:08.204Z,86.03
2017-09-01T03:21:34.398Z,86.20
2017-09-01T03:24:00.645Z,85.56
2017-09-01T03:26:26.878Z,86.72
2017-09-01T03:28:53.108Z,85.54
2017-09-01T03:31:19.317Z,84.76
2017-09-01T03:33:45.552Z,85.59
2017-09-01T03:36:11.780Z,85.93
2017-09-01T03:38:38.019Z,85.56
2017-09-01T03:41:04.193Z,86.04
2017-09-01T03:43:30.370Z,85.96
2017-09-01T03:45:56.619Z,86.09
2017-09-01T03:48:22.839Z,86.92
2017-09-01T03:50:49.077Z,85.97
2017-09-01T03:53:15.304Z,86.20
2017-09-01T03:55:41.539Z,86.20
2017-09-01T03:58:07.757Z,86.24
2017-09-01T04:00:33.995Z,86.05
2017-09-01T04:03:00.211Z,85.69
2017-09-01T04:05:26.449Z,85.73
2017-09-01T04:07:52.666Z,85.56
2017-09-01T04:10:18.898Z,85.47
2017-09-01T04:12:45.129Z,85.37
2017-09-01T04:15:11.376Z,85.14
2017-09-01T04:17:37.616Z,85.37
2017-09-01T04:20:03.827Z,85.17
2017-09-01T04:22:30.051Z,84.83
2017-09-01T04:24:56.314Z,84.87
2017-09-01T04:27:22.521Z,84.30
2017-09-01T04:29:48.750Z,84.28
2017-09-01T04:32:14.993Z,81.84
2017-09-01T04:34:41.187Z,78.50
2017-09-01T04:37:07.433Z,74.96
2017-09-01T04:39:33.658Z,71.15
2017-09-01T04:41:59.897Z,69.20
2017-09-01T04:44:26.107Z,67.17
2017-09-01T04:46:52.352Z,64.52
2017-09-01T04:49:18.618Z,61.73
2017-09-01T04:51:44.824Z,58.35
2017-09-01T04:54:11.039Z,57.12
2017-09-01T04:56:37.253Z,58.32
2017-09-01T04:59:03.501Z,60.92
2017-09-01T05:01:29.727Z,61.85
2017-09-01T05:03:55.960Z,63.77
2017-09-01T05:06:22.126Z,61.68
2017-09-01T05:08:48.310Z,61.80
2017-09-01T05:11:14.540Z,58.64
2017-09-01T05:13:40.777Z,57.52
2017-09-01T05:16:07.049Z,56.29
2017-09-01T05:18:33.251Z,54.53
2017-09-01T05:20:59.473Z,52.04
2017-09-01T05:23:25.719Z,52.81
2017-09-01T05:25:51.994Z,50.57
2017-09-01T05:28:18.262Z,49.30
2017-09-01T05:30:44.482Z,50.37
2017-09-01T05:33:10.717Z,48.95
2017-09-01T05:35:36.879Z,48.68
2017-09-01T05:38:03.084Z,47.92
2017-09-01T05:40:29.300Z,47.54
2017-09-01T05:42:55.536Z,45.44
2017-09-01T05:45:21.813Z,44.27
2017-09-01T05:47:48.100Z,46.22
2017-09-01T05:50:14.311Z,47.76
2017-09-01T05:52:40.558Z,48.84
2017-09-01T05:55:06.776Z,48.84
2017-09-01T05:57:33.042Z,49.39
2017-09-01T05:59:59.264Z,49.90
2017-09-01T06:02:25.470Z,50.32
2017-09-01T06:04:51.702Z,49.57
2017-09-01T06:07:17.931Z,48.16
2017-09-01T06:09:44.158Z,46.36
2017-09-01T06:12:10.390Z,46.26
2017-09-01T06:14:37.014Z,46.21
2017-09-01T06:17:03.260Z,45.37
2017-09-01T06:19:29.431Z,45.84
2017-09-01T06:21:55.604Z,45.85
2017-09-01T06:24:21.857Z,44.08
2017-09-01T06:26:48.080Z,42.72
2017-09-01T06:29:14.301Z,42.78
2017-09-01T06:31:40.557Z,42.71
2017-09-01T06:34:06.776Z,43.34
2017-09-01T06:36:32.997Z,43.09
2017-09-01T06:38:59.234Z,43.85
2017-09-01T06:41:25.468Z,42.91
2017-09-01T06:43:51.654Z,42.77
2017-09-01T06:46:17.823Z,42.92
2017-09-01T06:48:44.002Z,44.47
2017-09-01T06:51:10.165Z,43.65
2017-09-01T06:53:36.341Z,41.59
2017-09-01T06:56:02.504Z,42.04
2017-09-01T06:58:28.697Z,40.91
2017-09-01T07:00:54.856Z,41.02
2017-09-01T07:03:21.015Z,41.01
2017-09-01T07:05:47.191Z,39.71
2017-09-01T07:08:13.390Z,39.45
2017-09-01T07:10:39.544Z,39.75
2017-09-01T07:13:05.711Z,40.13
2017-09-01T07:15:31.884Z,40.63
2017-09-01T07:17:58.043Z,39.14
2017-09-01T07:20:24.215Z,38.88
2017-09-01T07:22:50.390Z,37.13
2017-09-01T07:25:16.568Z,37.27
2017-09-01T07:27:42.726Z,37.50
2017-09-01T07:30:08.886Z,36.25
2017-09-01T07:32:35.048Z,35.79
2017-09-01T07:35:01.222Z,34.70
2017-09-01T07:37:27.395Z,34.20
2017-09-01T07:39:53.539Z,35.16
2017-09-01T07:42:19.752Z,34.38
2017-09-01T07:44:45.932Z,35.20
2017-09-01T07:47:12.092Z,36.19
2017-09-01T07:49:38.241Z,35.23
2017-09-01T07:52:04.415Z,35.14
2017-09-01T07:54:30.572Z,34.91
2017-09-01T07:56:56.726Z,33.38
2017-09-01T07:59:22.898Z,32.05
2017-09-01T08:01:49.075Z,31.75
2017-09-01T08:04:15.252Z,32.65
2017-09-01T08:06:41.422Z,30.95
2017-09-01T08:09:07.600Z,30.34
2017-09-01T08:11:33.762Z,29.84
2017-09-01T08:13:59.930Z,28.76
2017-09-01T08:16:26.108Z,30.61
2017-09-01T08:18:52.270Z,29.03
2017-09-01T08:21:18.434Z,29.00
2017-09-01T08:23:44.587Z,29.38
2017-09-01T08:26:10.749Z,28.44
2017-09-01T08:28:36.925Z,27.60
2017-09-01T08:31:03.114Z,26.88
2017-09-01T08:33:29.279Z,26.75
2017-09-01T08:35:55.453Z,27.16
2017-09-01T08:38:21.628Z,26.45
2017-09-01T08:40:47.793Z,26.34
2017-09-01T08:43:13.956Z,27.03
2017-09-01T08:45:40.100Z,25.30
2017-09-01T08:48:06.271Z,25.70
2017-09-01T08:50:32.443Z,26.09
2017-09-01T08:52:58.608Z,25.72
2017-09-01T08:55:24.787Z,24.31
2017-09-01T08:57:50.968Z,23.29
2017-09-01T09:00:17.136Z,22.99
2017-09-01T09:02:43.304Z,24.11
2017-09-01T09:05:09.490Z,23.85
2017-09-01T09:07:35.670Z,23.76
2017-09-01T09:10:01.851Z,23.93
2017-09-01T09:12:28.022Z,23.88
2017-09-01T09:14:54.201Z,23.12
2017-09-01T09:17:20.369Z,22.65
2017-09-01T09:19:46.527Z,23.00
2017-09-01T09:22:12.680Z,23.29
2017-09-01T09:24:38.857Z,23.98
2017-09-01T09:27:05.035Z,23.97
2017-09-01T09:29:31.202Z,23.48
2017-09-01T09:31:57.377Z,22.52
2017-09-01T09:34:23.547Z,23.19
2017-09-01T09:36:49.717Z,22.75
2017-09-01T09:39:15.892Z,22.61
2017-09-01T09:41:42.076Z,22.39
2017-09-01T09:44:08.269Z,24.01
2017-09-01T09:46:34.438Z,22.25
2017-09-01T09:49:00.604Z,22.59
2017-09-01T09:51:26.768Z,22.06
2017-09-01T09:53:52.962Z,21.98
2017-09-01T09:56:19.150Z,22.43
2017-09-01T09:58:45.304Z,23.69
2017-09-01T10:01:11.474Z,22.49
2017-09-01T10:03:37.645Z,22.64
2017-09-01T10:06:03.805Z,21.66
2017-09-01T10:08:29.999Z,21.37
2017-09-01T10:10:56.182Z,21.16
2017-09-01T10:13:22.370Z,20.14
2017-09-01T10:15:48.540Z,20.36
2017-09-01T10:18:14.727Z,19.16
2017-09-01T10:20:40.903Z,18.94
2017-09-01T10:23:07.081Z,18.36
2017-09-01T10:25:33.252Z,19.59
2017-09-01T10:27:59.420Z,18.67
2017-09-01T10:30:25.605Z,20.76
2017-09-01T10:32:51.788Z,19.67
2017-09-01T10:35:17.987Z,18.86
2017-09-01T10:37:44.171Z,19.37
2017-09-01T10:40:10.325Z,19.62
2017-09-01T10:42:36.474Z,19.81
2017-09-01T10:45:02.632Z,20.03
2017-09-01T10:47:28.806Z,20.12
2017-09-01T10:49:54.999Z,20.05
2017-09-01T10:52:21.173Z,19.50
2017-09-01T10:54:47.350Z,19.53
2017-09-01T10:57:13.551Z,20.30
2017-09-01T10:59:39.736Z,20.13
2017-09-01T11:02:05.919Z,19.93
2017-09-01T11:04:32.108Z,21.12
2017-09-01T11:06:58.287Z,19.57
2017-09-01T11:09:24.446Z,21.10
2017-09-01T11:11:50.621Z,19.60
2017-09-01T11:14:16.807Z,20.06
2017-09-01T11:16:42.984Z,21.05
2017-09-01T11:19:09.143Z,19.80
2017-09-01T11:21:35.305Z,20.52
2017-09-01T11:24:01.487Z,20.37
2017-09-01T11:26:27.664Z,21.62
2017-09-01T11:28:53.851Z,21.73
2017-09-01T11:31:20.033Z,21.65
2017-09-01T11:33:46.208Z,21.14
2017-09-01T11:36:12.357Z,21.55
2017-09-01T11:38:38.527Z,20.53
2017-09-01T11:41:04.700Z,19.91
2017-09-01T11:43:30.865Z,19.45
2017-09-01T11:45:57.057Z,20.72
2017-09-01T11:48:23.246Z,19.62
2017-09-01T11:50:49.408Z,20.12
2017-09-01T11:53:15.573Z,18.97
2017-09-01T11:55:41.747Z,19.99
2017-09-01T11:58:07.908Z,19.62
2017-09-01T12:00:34.069Z,18.75
2017-09-01T12:03:00.216Z,19.45
2017-09-01T12:05:26.380Z,19.30
2017-09-01T12:07:52.536Z,19.29
2017-09-01T12:10:18.732Z,18.56
2017-09-01T12:12:44.896Z,19.83
2017-09-01T12:15:11.076Z,18.20
2017-09-01T12:17:37.255Z,18.97
2017-09-01T12:20:03.405Z,18.69
2017-09-01T12:22:29.563Z,20.16
2017-09-01T12:24:55.769Z,19.95
2017-09-01T12:27:21.946Z,19.51
2017-09-01T12:29:48.113Z,18.84
2017-09-01T12:32:14.282Z,18.94
2017-09-01T12:34:40.476Z,19.32
2017-09-01T12:37:06.638Z,18.81
2017-09-01T12:39:32.817Z,19.89
2017-09-01T12:41:58.968Z,20.41
2017-09-01T12:44:25.132Z,20.62
2017-09-01T12:46:51.306Z,20.75
2017-09-01T12:49:17.467Z,18.89
2017-09-01T12:51:45.207Z,18.63
2017-09-01T12:54:11.374Z,17.84
2017-09-01T12:56:37.531Z,16.94
2017-09-01T12:59:03.702Z,17.75
2017-09-01T13:01:29.869Z,17.63
2017-09-01T13:03:56.031Z,17.23
2017-09-01T13:06:22.196Z,16.85
2017-09-01T13:08:48.352Z,16.77
2017-09-01T13:11:14.495Z,17.83
2017-09-01T13:13:40.663Z,17.53
2017-09-01T13:16:06.834Z,16.87
2017-09-01T13:18:32.998Z,16.15
2017-09-01T13:20:59.327Z,16.56
2017-09-01T13:23:25.487Z,19.37
2017-09-01T13:25:51.650Z,20.11
2017-09-01T13:28:17.813Z,19.69
2017-09-01T13:30:43.976Z,17.32
2017-09-01T13:33:10.148Z,16.92
2017-09-01T13:35:36.323Z,16.85
2017-09-01T13:38:02.493Z,17.04
2017-09-01T13:40:28.655Z,16.58
2017-09-01T13:42:54.831Z,16.23
2017-09-01T13:45:20.985Z,16.62
2017-09-01T13:47:47.151Z,16.30
2017-09-01T13:50:13.306Z,15.36
2017-09-01T13:52:39.474Z,14.88
2017-09-01T13:55:05.633Z,14.01
2017-09-01T13:57:31.800Z,13.69
2017-09-01T13:59:57.954Z,13.81
2017-09-01T14:02:24.116Z,14.51
2017-09-01T14:04:50.292Z,13.65
2017-09-01T14:07:16.465Z,13.66
2017-09-01T14:09:42.651Z,13.74
2017-09-01T14:12:08.820Z,14.68
2017-09-01T14:14:34.994Z,14.24
2017-09-01T14:17:05.134Z,15.33
2017-09-01T14:19:31.301Z,14.72
2017-09-01T14:21:57.459Z,15.38
2017-09-01T14:24:23.635Z,15.45
2017-09-01T14:26:49.811Z,15.32
2017-09-01T14:29:15.982Z,16.14
2017-09-01T14:31:42.139Z,15.75
2017-09-01T14:34:08.312Z,16.63
2017-09-01T14:36:34.480Z,16.41
2017-09-01T14:39:00.646Z,15.36
2017-09-01T14:41:26.804Z,15.35
2017-09-01T14:43:52.956Z,15.28
2017-09-01T14:46:19.105Z,14.27
2017-09-01T14:48:45.283Z,14.67
2017-09-01T14:51:11.441Z,15.93
2017-09-01T14:53:37.608Z,17.88
2017-09-01T14:56:03.781Z,18.08
2017-09-01T14:58:29.949Z,19.02
2017-09-01T15:00:56.118Z,19.10
2017-09-01T15:03:22.315Z,17.53
2017-09-01T15:05:48.484Z,19.28
2017-09-01T15:08:14.639Z,19.30
2017-09-01T15:10:40.815Z,19.46
2017-09-01T15:13:06.994Z,19.49
2017-09-01T15:15:33.179Z,19.88
2017-09-01T15:17:59.358Z,20.05
2017-09-01T15:20:25.568Z,19.55
2017-09-01T15:22:51.728Z,18.70
2017-09-01T15:25:17.907Z,19.16
2017-09-01T15:27:44.075Z,20.81
2017-09-01T15:30:10.240Z,20.89
2017-09-01T15:32:36.421Z,20.67
2017-09-01T15:35:02.589Z,20.50
2017-09-01T15:37:28.757Z,20.12
2017-09-01T15:39:54.934Z,21.26
2017-09-01T15:42:21.110Z,19.88
2017-09-01T15:44:47.287Z,20.08
2017-09-01T15:47:13.440Z,20.29
2017-09-01T15:49:39.605Z,20.12
2017-09-01T15:52:05.765Z,22.18
2017-09-01T15:54:31.929Z,20.84
2017-09-01T15:56:58.106Z,21.61
2017-09-01T15:59:24.268Z,22.59
2017-09-01T16:01:50.426Z,22.35
2017-09-01T16:04:16.573Z,22.90
2017-09-01T16:06:42.735Z,23.57
2017-09-01T16:09:08.904Z,23.26
2017-09-01T16:11:35.094Z,23.19
2017-09-01T16:14:01.277Z,23.42
2017-09-01T16:16:27.452Z,23.30
2017-09-01T16:18:53.627Z,23.85
2017-09-01T16:21:19.806Z,24.37
2017-09-01T16:23:45.992Z,23.75
2017-09-01T16:26:12.163Z,23.62
2017-09-01T16:28:38.395Z,23.82
2017-09-01T16:31:04.544Z,24.33
2017-09-01T16:33:30.705Z,24.65
2017-09-01T16:35:56.884Z,25.76
2017-09-01T16:38:23.049Z,26.60
2017-09-01T16:40:49.238Z,28.45
2017-09-01T16:43:15.398Z,30.24
2017-09-01T16:45:41.561Z,31.50
2017-09-01T16:48:07.740Z,32.29
2017-09-01T16:50:33.915Z,31.73
2017-09-01T16:53:00.072Z,31.34
2017-09-01T16:55:26.306Z,31.77
2017-09-01T16:57:52.490Z,33.19
2017-09-01T17:00:18.650Z,34.09
2017-09-01T17:02:44.827Z,34.96
2017-09-01T17:05:10.996Z,35.96
2017-09-01T17:07:37.167Z,36.46
2017-09-01T17:10:03.319Z,37.05
2017-09-01T17:12:29.510Z,37.40
2017-09-01T17:14:55.662Z,37.92
2017-09-01T17:17:21.854Z,38.50
2017-09-01T17:19:48.130Z,38.59
2017-09-01T17:22:14.338Z,38.95
2017-09-01T17:24:40.513Z,39.91
2017-09-01T17:27:06.682Z,39.38
2017-09-01T17:29:32.847Z,39.72
2017-09-01T17:31:58.997Z,39.79
2017-09-01T17:34:25.165Z,40.15
2017-09-01T17:36:51.349Z,40.19
2017-09-01T17:39:17.518Z,40.51
2017-09-01T17:41:43.683Z,40.88
2017-09-01T17:44:09.837Z,41.48
2017-09-01T17:46:36.004Z,41.29
2017-09-01T17:49:02.174Z,41.21
2017-09-01T17:51:28.336Z,41.42
2017-09-01T17:53:54.500Z,41.69
2017-09-01T17:56:20.659Z,42.06
2017-09-01T17:58:46.822Z,42.11
2017-09-01T18:01:12.981Z,42.59
2017-09-01T18:03:39.132Z,42.50
2017-09-01T18:06:05.303Z,43.09
2017-09-01T18:08:31.453Z,42.97
2017-09-01T18:10:57.610Z,43.31
2017-09-01T18:13:23.766Z,43.79
2017-09-01T18:15:49.969Z,44.26
2017-09-01T18:18:16.129Z,45.07
2017-09-01T18:20:42.301Z,44.30
2017-09-01T18:23:08.442Z,44.03
2017-09-01T18:25:34.609Z,45.40
2017-09-01T18:28:00.769Z,46.12
2017-09-01T18:30:26.928Z,47.25
2017-09-01T18:32:53.100Z,47.32
2017-09-01T18:35:19.248Z,47.57
2017-09-01T18:37:45.414Z,48.41
2017-09-01T18:40:11.584Z,48.58
2017-09-01T18:42:37.742Z,49.00
2017-09-01T18:45:03.913Z,47.65
2017-09-01T18:47:30.100Z,49.33
2017-09-01T18:49:56.267Z,51.29
2017-09-01T18:52:22.446Z,48.75
2017-09-01T18:54:48.615Z,50.53
2017-09-01T18:57:14.782Z,49.02
2017-09-01T18:59:40.946Z,48.94
2017-09-01T19:02:07.129Z,50.39
2017-09-01T19:04:33.313Z,49.64
2017-09-01T19:06:59.480Z,49.31
2017-09-01T19:09:25.654Z,49.08
2017-09-01T19:11:51.835Z,49.54
2017-09-01T19:14:18.000Z,49.66
2017-09-01T19:16:44.257Z,49.48
2017-09-01T19:19:10.428Z,51.09
2017-09-01T19:21:36.607Z,49.77
2017-09-01T19:24:02.776Z,52.12
2017-09-01T19:26:28.953Z,51.29
2017-09-01T19:28:55.120Z,50.90
2017-09-01T19:31:21.295Z,51.32
2017-09-01T19:33:47.470Z,51.83
2017-09-01T19:36:13.648Z,52.41
2017-09-01T19:38:39.822Z,52.04
2017-09-01T19:41:05.998Z,51.95
2017-09-01T19:43:32.145Z,51.92
2017-09-01T19:45:58.299Z,52.14
2017-09-01T19:48:24.483Z,53.99
2017-09-01T19:50:50.634Z,54.30
2017-09-01T19:53:16.815Z,54.36
2017-09-01T19:55:42.977Z,54.75
2017-09-01T19:58:09.136Z,54.62
2017-09-01T20:00:35.297Z,54.39
2017-09-01T20:03:01.457Z,54.63
2017-09-01T20:05:27.617Z,55.53
2017-09-01T20:07:53.799Z,56.13
2017-09-01T20:10:19.970Z,55.36
2017-09-01T20:12:46.133Z,55.76
2017-09-01T20:15:12.279Z,55.81
2017-09-01T20:17:38.447Z,56.36
2017-09-01T20:20:04.615Z,56.32
2017-09-01T20:22:30.771Z,56.46
2017-09-01T20:24:56.930Z,57.31
2017-09-01T20:27:23.088Z,60.23
2017-09-01T20:29:49.247Z,60.10
2017-09-01T20:32:15.423Z,61.39
2017-09-01T20:34:41.589Z,61.99
2017-09-01T20:37:07.763Z,63.76
2017-09-01T20:55:48.924Z,67.02
2017-09-01T20:58:15.087Z,66.02
2017-09-01T21:00:41.238Z,66.36
2017-09-01T21:03:07.401Z,66.59
2017-09-01T21:05:33.586Z,66.41
2017-09-01T21:07:59.868Z,66.05
2017-09-01T21:10:26.086Z,65.55
2017-09-01T21:12:52.315Z,65.82
2017-09-01T21:15:18.532Z,66.02
2017-09-01T21:17:44.776Z,65.81
2017-09-01T21:20:10.996Z,66.32
2017-09-01T21:22:37.235Z,66.50
2017-09-01T21:25:03.467Z,66.78
2017-09-01T21:27:29.678Z,66.76
2017-09-01T21:29:55.911Z,67.19
2017-09-01T21:32:22.070Z,68.19
2017-09-01T21:34:48.258Z,68.56
2017-09-01T21:39:40.434Z,68.46
2017-09-01T21:42:06.657Z,68.38
2017-09-01T21:44:32.948Z,68.42
2017-09-01T21:46:59.225Z,68.00
2017-09-01T21:49:25.397Z,68.19
2017-09-01T21:51:51.569Z,67.46
2017-09-01T21:54:17.800Z,68.00
2017-09-01T21:56:43.973Z,68.21
2017-09-01T21:59:10.161Z,68.78
2017-09-01T22:01:36.383Z,68.97
2017-09-01T22:04:02.548Z,69.65
2017-09-01T22:06:28.750Z,69.77
2017-09-01T22:08:54.925Z,69.62
2017-09-01T22:11:21.211Z,69.70
2017-09-01T22:13:47.424Z,70.53
2017-09-01T22:16:13.657Z,70.92
2017-09-01T22:18:39.897Z,70.74
2017-09-01T22:21:06.127Z,71.30
2017-09-01T22:23:32.354Z,71.97
2017-09-01T22:25:58.584Z,71.77
2017-09-01T22:28:24.815Z,72.06
2017-09-01T22:30:51.054Z,72.42
2017-09-01T22:33:17.279Z,72.14
2017-09-01T22:35:43.509Z,72.25
2017-09-01T22:38:09.729Z,72.15
2017-09-01T22:40:35.962Z,72.21
2017-09-01T22:43:02.195Z,72.16
2017-09-01T22:45:28.418Z,72.19
2017-09-01T22:47:54.653Z,71.57
2017-09-01T22:50:20.884Z,70.05
2017-09-01T22:52:47.117Z,71.78
2017-09-01T22:55:13.364Z,71.14
2017-09-01T22:57:39.583Z,71.18
2017-09-01T23:00:05.807Z,71.71
2017-09-01T23:02:32.039Z,71.86
2017-09-01T23:04:58.275Z,71.56
2017-09-01T23:15:25.816Z,75.68
2017-09-01T23:17:52.062Z,75.82
2017-09-01T23:20:18.411Z,75.67
2017-09-01T23:22:44.745Z,75.77
2017-09-01T23:25:11.097Z,75.59
2017-09-01T23:27:37.409Z,75.65
2017-09-01T23:30:03.730Z,75.78
2017-09-01T23:32:30.060Z,75.89
2017-09-01T23:34:56.433Z,75.84
2017-09-01T23:37:22.740Z,75.99
2017-09-01T23:39:48.998Z,75.92
2017-09-01T23:42:15.305Z,75.93
2017-09-01T23:44:41.620Z,75.79
2017-09-01T23:47:07.971Z,76.03
2017-09-01T23:49:34.284Z,76.16
2017-09-01T23:52:00.627Z,76.28
2017-09-01T23:54:26.860Z,76.23
2017-09-01T23:56:53.222Z,76.73
2017-09-01T23:59:19.514Z,76.14
